Time,TemperatureF,DewpointF,PressureIn,WindDirection,WindDirectionDegrees,WindSpeedMPH,WindSpeedGustMPH,Humidity,HourlyPrecipIn,Conditions,Clouds,dailyrainin,SoftwareType,DateUTC
2013-10-05 00:01:00,56.7,52.5,29.99,North,0,0.0,0.0,86,0.00,RA,,0.00,WeatherDisplay:10.37,2013-10-05 04:01:00,
2013-10-05 00:02:00,56.7,52.5,29.99,North,0,0.0,0.0,86,0.00,RA,,0.00,WeatherDisplay:10.37,2013-10-05 04:02:00,
2013-10-05 00:07:00,56.7,52.5,29.99,North,0,0.0,0.0,86,0.00,RA,,0.00,WeatherDisplay:10.37,2013-10-05 04:07:00,
2013-10-05 00:12:00,56.5,52.3,30.00,North,0,0.0,0.0,86,0.00,CLR,,0.00,WeatherDisplay:10.37,2013-10-05 04:12:00,
2013-10-05 00:17:00,56.5,52.3,30.00,North,0,0.0,0.0,86,0.00,CLR,,0.00,WeatherDisplay:10.37,2013-10-05 04:17:00,
2013-10-05 00:22:00,56.5,52.3,30.00,North,0,0.0,0.0,86,0.00,CLR,,0.00,WeatherDisplay:10.37,2013-10-05 04:22:00,
2013-10-05 00:27:00,56.3,52.2,30.00,North,0,0.0,0.0,86,0.00,CLR,,0.00,WeatherDisplay:10.37,2013-10-05 04:27:00,
2013-10-05 00:32:00,56.1,52.0,30.00,North,0,0.0,0.0,86,0.00,CLR,,0.00,WeatherDisplay:10.37,2013-10-05 04:32:00,
2013-10-05 00:37:00,56.1,52.0,30.00,North,0,0.0,0.0,86,0.00,CLR,,0.00,WeatherDisplay:10.37,2013-10-05 04:37:00,
2013-10-05 00:42:00,56.1,52.0,30.00,North,0,0.0,0.0,86,0.00,CLR,,0.00,WeatherDisplay:10.37,2013-10-05 04:42:00,
2013-10-05 00:47:00,56.1,52.0,30.00,North,0,0.0,0.0,86,0.00,CLR,,0.00,WeatherDisplay:10.37,2013-10-05 04:47:00,
2013-10-05 00:52:00,56.1,52.3,30.00,North,0,0.0,0.0,87,0.00,CLR,,0.00,WeatherDisplay:10.37,2013-10-05 04:52:00,
2013-10-05 00:57:00,56.1,52.3,29.99,North,0,0.0,0.0,87,0.00,CLR,,0.00,WeatherDisplay:10.37,2013-10-05 04:57:00,
2013-10-05 01:02:00,56.1,52.3,29.99,North,0,0.0,0.0,87,0.00,CLR,,0.00,WeatherDisplay:10.37,2013-10-05 05:02:00,
2013-10-05 01:07:00,56.1,52.3,30.00,North,0,0.0,0.0,87,0.00,CLR,,0.00,WeatherDisplay:10.37,2013-10-05 05:07:00,
2013-10-05 01:12:00,56.1,52.3,30.00,North,0,0.0,0.0,87,0.00,CLR,,0.00,WeatherDisplay:10.37,2013-10-05 05:12:00,
2013-10-05 01:17:00,56.1,52.3,30.00,North,0,0.0,0.0,87,0.00,CLR,,0.00,WeatherDisplay:10.37,2013-10-05 05:17:00,
2013-10-05 01:22:00,56.1,52.3,30.00,North,0,0.0,0.0,87,0.00,CLR,,0.00,WeatherDisplay:10.37,2013-10-05 05:22:00,
2013-10-05 01:27:00,56.3,52.8,30.00,North,0,0.0,0.0,88,0.00,CLR,,0.00,WeatherDisplay:10.37,2013-10-05 05:27:00,
2013-10-05 01:32:00,56.3,52.8,30.00,North,0,0.0,0.0,88,0.00,CLR,,0.00,WeatherDisplay:10.37,2013-10-05 05:32:00,
2013-10-05 01:37:00,56.5,53.0,30.00,North,0,0.0,0.0,88,0.00,CLR,,0.00,WeatherDisplay:10.37,2013-10-05 05:37:00,
2013-10-05 01:42:00,56.5,53.0,29.99,NE,45,0.2,0.2,88,0.00,CLR,,0.00,WeatherDisplay:10.37,2013-10-05 05:42:00,
2013-10-05 01:47:00,56.5,53.0,29.99,NE,45,0.0,0.0,88,0.00,CLR,,0.00,WeatherDisplay:10.37,2013-10-05 05:47:00,
2013-10-05 01:52:00,56.7,53.1,30.00,NNW,338,0.0,0.0,88,0.00,CLR,,0.00,WeatherDisplay:10.37,2013-10-05 05:52:00,
2013-10-05 01:57:00,56.7,53.1,30.00,NW,315,0.0,0.0,88,0.00,CLR,,0.00,WeatherDisplay:10.37,2013-10-05 05:57:00,
2013-10-05 02:02:00,56.8,53.3,30.00,NW,315,0.0,0.0,88,0.00,CLR,,0.00,WeatherDisplay:10.37,2013-10-05 06:02:00,
2013-10-05 02:07:00,56.8,53.3,30.00,NW,315,0.0,0.0,88,0.00,CLR,,0.00,WeatherDisplay:10.37,2013-10-05 06:07:00,
2013-10-05 02:12:00,56.8,53.3,30.00,NW,315,0.0,0.0,88,0.00,CLR,,0.00,WeatherDisplay:10.37,2013-10-05 06:12:00,
2013-10-05 02:17:00,56.8,53.3,30.00,NW,315,0.0,0.0,88,0.00,CLR,,0.00,WeatherDisplay:10.37,2013-10-05 06:17:00,
2013-10-05 02:23:00,56.8,53.3,29.99,NW,315,0.0,0.0,88,0.00,CLR,,0.00,WeatherDisplay:10.37,2013-10-05 06:23:00,
2013-10-05 02:28:00,57.0,53.5,29.99,NW,315,0.0,0.0,88,0.00,CLR,,0.00,WeatherDisplay:10.37,2013-10-05 06:28:00,
2013-10-05 02:33:00,57.0,53.5,29.99,NW,315,0.0,0.0,88,0.00,CLR,,0.00,WeatherDisplay:10.37,2013-10-05 06:33:00,
2013-10-05 02:38:00,57.0,53.5,29.99,NW,315,0.0,0.0,88,0.00,CLR,,0.00,WeatherDisplay:10.37,2013-10-05 06:38:00,
2013-10-05 02:43:00,57.0,53.5,29.99,NW,315,0.0,0.0,88,0.00,CLR,,0.00,WeatherDisplay:10.37,2013-10-05 06:43:00,
2013-10-05 02:48:00,57.0,53.5,29.99,NW,315,0.0,0.0,88,0.00,CLR,,0.00,WeatherDisplay:10.37,2013-10-05 06:48:00,
2013-10-05 02:53:00,57.0,53.5,29.99,WNW,292,0.0,0.0,88,0.00,CLR,,0.00,WeatherDisplay:10.37,2013-10-05 06:53:00,
2013-10-05 02:58:00,57.0,53.5,29.99,WNW,292,0.0,0.0,88,0.00,CLR,,0.00,WeatherDisplay:10.37,2013-10-05 06:58:00,
2013-10-05 03:03:00,57.0,53.8,29.98,WNW,292,0.0,0.0,89,0.00,CLR,,0.00,WeatherDisplay:10.37,2013-10-05 07:03:00,
2013-10-05 03:08:00,57.0,53.8,29.99,WNW,292,0.0,0.0,89,0.00,CLR,,0.00,WeatherDisplay:10.37,2013-10-05 07:08:00,
2013-10-05 03:13:00,57.2,54.0,29.99,WNW,292,0.0,0.0,89,0.00,CLR,,0.00,WeatherDisplay:10.37,2013-10-05 07:13:00,
2013-10-05 03:18:00,57.2,54.0,29.99,WNW,292,0.0,0.0,89,0.00,CLR,,0.00,WeatherDisplay:10.37,2013-10-05 07:18:00,
2013-10-05 03:23:00,57.2,54.0,29.98,WNW,292,0.0,0.0,89,0.00,CLR,,0.00,WeatherDisplay:10.37,2013-10-05 07:23:00,
2013-10-05 03:28:00,57.4,54.2,29.98,West,270,0.0,0.0,89,0.00,CLR,,0.00,WeatherDisplay:10.37,2013-10-05 07:28:00,
2013-10-05 03:33:00,57.4,54.2,29.99,West,270,0.0,0.0,89,0.00,CLR,,0.00,WeatherDisplay:10.37,2013-10-05 07:33:00,
2013-10-05 03:38:00,57.4,54.2,29.99,West,270,0.0,0.0,89,0.00,CLR,,0.00,WeatherDisplay:10.37,2013-10-05 07:38:00,
2013-10-05 03:43:00,57.4,54.2,29.98,West,270,0.0,0.0,89,0.00,CLR,,0.00,WeatherDisplay:10.37,2013-10-05 07:43:00,
2013-10-05 03:48:00,57.6,54.3,29.99,West,270,0.0,0.0,89,0.00,CLR,,0.00,WeatherDisplay:10.37,2013-10-05 07:48:00,
2013-10-05 03:53:00,57.6,54.3,29.99,West,270,0.0,0.0,89,0.00,CLR,,0.00,WeatherDisplay:10.37,2013-10-05 07:53:00,
2013-10-05 03:58:00,57.6,54.3,29.99,West,270,0.0,0.0,89,0.00,CLR,,0.00,WeatherDisplay:10.37,2013-10-05 07:58:00,
2013-10-05 04:03:00,57.7,54.5,29.99,West,270,0.2,0.0,89,0.00,CLR,,0.00,WeatherDisplay:10.37,2013-10-05 08:03:00,
2013-10-05 04:08:00,57.9,54.7,29.99,NE,45,0.0,0.0,89,0.00,CLR,,0.00,WeatherDisplay:10.37,2013-10-05 08:08:00,
2013-10-05 04:13:00,57.9,54.7,29.99,NE,45,0.0,0.0,89,0.00,CLR,,0.00,WeatherDisplay:10.37,2013-10-05 08:13:00,
2013-10-05 04:18:00,58.1,54.9,29.99,ENE,68,0.0,0.0,89,0.00,CLR,,0.00,WeatherDisplay:10.37,2013-10-05 08:18:00,
2013-10-05 04:23:00,58.1,54.9,29.99,ENE,68,0.0,0.0,89,0.00,CLR,,0.00,WeatherDisplay:10.37,2013-10-05 08:23:00,
2013-10-05 04:28:00,58.1,54.9,29.99,ENE,68,0.0,0.0,89,0.00,CLR,,0.00,WeatherDisplay:10.37,2013-10-05 08:28:00,
2013-10-05 04:33:00,58.3,55.4,29.99,ENE,68,0.0,0.0,90,0.00,CLR,,0.00,WeatherDisplay:10.37,2013-10-05 08:33:00,
2013-10-05 04:38:00,58.3,55.4,29.99,ENE,68,0.0,0.0,90,0.00,CLR,,0.00,WeatherDisplay:10.37,2013-10-05 08:38:00,
2013-10-05 04:43:00,58.3,55.4,29.99,ENE,68,0.0,0.0,90,0.00,CLR,,0.00,WeatherDisplay:10.37,2013-10-05 08:43:00,
2013-10-05 04:48:00,58.5,55.5,29.99,ENE,68,0.0,0.0,90,0.00,CLR,,0.00,WeatherDisplay:10.37,2013-10-05 08:48:00,
2013-10-05 04:53:00,58.5,55.5,29.99,ENE,68,0.0,0.0,90,0.00,CLR,,0.00,WeatherDisplay:10.37,2013-10-05 08:53:00,
2013-10-05 04:58:00,58.5,55.5,29.99,ENE,68,0.0,0.0,90,0.00,CLR,,0.00,WeatherDisplay:10.37,2013-10-05 08:58:00,
2013-10-05 05:03:00,58.6,55.7,29.99,ENE,68,0.0,0.0,90,0.00,CLR,,0.00,WeatherDisplay:10.37,2013-10-05 09:03:00,
2013-10-05 05:08:00,58.6,55.7,29.99,ENE,68,0.0,0.0,90,0.00,CLR,,0.00,WeatherDisplay:10.37,2013-10-05 09:08:00,
2013-10-05 05:13:00,58.6,55.7,29.99,ENE,68,0.0,0.0,90,0.00,CLR,,0.00,WeatherDisplay:10.37,2013-10-05 09:13:00,
2013-10-05 05:18:00,58.6,55.7,29.99,NNE,22,0.9,1.1,90,0.00,CLR,,0.00,WeatherDisplay:10.37,2013-10-05 09:18:00,
2013-10-05 05:23:00,58.6,55.7,29.99,NNE,22,0.0,1.1,90,0.00,CLR,,0.00,WeatherDisplay:10.37,2013-10-05 09:23:00,
2013-10-05 05:28:00,58.6,55.7,29.99,NNE,22,0.0,0.0,90,0.00,CLR,,0.00,WeatherDisplay:10.37,2013-10-05 09:28:00,
2013-10-05 05:33:00,58.6,55.7,29.99,NNE,22,0.5,0.5,90,0.00,CLR,,0.00,WeatherDisplay:10.37,2013-10-05 09:33:00,
2013-10-05 05:38:00,58.6,55.7,29.99,North,0,1.1,1.1,90,0.00,CLR,,0.00,WeatherDisplay:10.37,2013-10-05 09:38:00,
2013-10-05 05:43:00,58.6,55.7,29.99,East,90,0.5,1.1,90,0.00,CLR,,0.00,WeatherDisplay:10.37,2013-10-05 09:43:00,
2013-10-05 05:48:00,58.6,55.7,29.99,North,0,0.0,0.0,90,0.00,CLR,,0.00,WeatherDisplay:10.37,2013-10-05 09:48:00,
2013-10-05 05:53:00,58.8,55.9,30.00,NNE,22,0.0,0.0,90,0.00,CLR,,0.00,WeatherDisplay:10.37,2013-10-05 09:53:00,
2013-10-05 05:58:00,59.0,56.1,30.00,NNE,22,0.0,0.0,90,0.00,CLR,,0.00,WeatherDisplay:10.37,2013-10-05 09:58:00,
2013-10-05 06:03:00,59.0,56.1,30.00,NNE,22,0.2,0.2,90,0.00,CLR,,0.00,WeatherDisplay:10.37,2013-10-05 10:03:00,
2013-10-05 06:08:00,59.0,56.1,30.00,NNE,22,0.0,0.0,90,0.00,CLR,,0.00,WeatherDisplay:10.37,2013-10-05 10:08:00,
2013-10-05 06:13:00,59.0,56.1,30.00,NNE,22,0.0,0.0,90,0.00,CLR,,0.00,WeatherDisplay:10.37,2013-10-05 10:13:00,
2013-10-05 06:18:00,59.0,56.1,30.01,NNE,22,0.0,0.0,90,0.00,CLR,,0.00,WeatherDisplay:10.37,2013-10-05 10:18:00,
2013-10-05 06:23:00,59.0,56.1,30.01,NNE,22,0.0,0.0,90,0.00,CLR,,0.00,WeatherDisplay:10.37,2013-10-05 10:23:00,
2013-10-05 06:28:00,59.2,56.2,30.01,NNE,22,0.0,0.0,90,0.00,CLR,,0.00,WeatherDisplay:10.37,2013-10-05 10:28:00,
2013-10-05 06:33:00,59.2,56.2,30.01,NNE,22,0.0,0.0,90,0.00,CLR,,0.01,WeatherDisplay:10.37,2013-10-05 10:33:00,
2013-10-05 06:38:00,59.2,56.2,30.01,NNE,22,0.0,0.0,90,0.02,RA,,0.02,WeatherDisplay:10.37,2013-10-05 10:38:00,
2013-10-05 06:43:00,59.2,56.2,30.01,NNE,22,0.0,0.0,90,0.03,RA,,0.03,WeatherDisplay:10.37,2013-10-05 10:43:00,
2013-10-05 06:48:00,59.4,56.4,30.01,NNE,22,0.0,0.0,90,0.04,RA,,0.04,WeatherDisplay:10.37,2013-10-05 10:48:00,
2013-10-05 06:53:00,59.4,56.4,30.01,NNE,22,0.0,0.0,90,0.06,RA,,0.06,WeatherDisplay:10.37,2013-10-05 10:53:00,
2013-10-05 06:58:00,59.2,56.2,30.01,NNE,22,0.0,0.0,90,0.07,RA,,0.07,WeatherDisplay:10.37,2013-10-05 10:58:00,
2013-10-05 07:03:00,59.4,56.4,30.01,NNE,22,0.0,0.0,90,0.07,RA,,0.07,WeatherDisplay:10.37,2013-10-05 11:03:00,
2013-10-05 07:08:00,59.4,56.4,30.00,NNE,22,0.0,0.0,90,0.08,RA,,0.08,WeatherDisplay:10.37,2013-10-05 11:08:00,
2013-10-05 07:13:00,59.4,56.4,30.01,NNE,22,0.0,0.0,90,0.08,RA,,0.08,WeatherDisplay:10.37,2013-10-05 11:13:00,
2013-10-05 07:18:00,59.4,56.4,30.01,NNE,22,0.0,0.0,90,0.08,CLR,,0.08,WeatherDisplay:10.37,2013-10-05 11:18:00,
2013-10-05 07:23:00,59.4,56.4,30.01,NNE,22,0.0,0.0,90,0.08,CLR,,0.08,WeatherDisplay:10.37,2013-10-05 11:23:00,
2013-10-05 07:28:00,59.4,56.4,30.01,NNE,22,0.0,0.0,90,0.08,CLR,,0.08,WeatherDisplay:10.37,2013-10-05 11:28:00,
2013-10-05 07:33:00,59.4,56.4,30.01,NE,45,1.1,1.1,90,0.07,CLR,,0.08,WeatherDisplay:10.37,2013-10-05 11:33:00,
2013-10-05 07:38:00,59.4,56.4,30.01,NE,45,0.0,0.0,90,0.06,CLR,,0.08,WeatherDisplay:10.37,2013-10-05 11:38:00,
2013-10-05 07:43:00,59.4,56.4,30.02,NNE,22,0.0,0.0,90,0.05,CLR,,0.08,WeatherDisplay:10.37,2013-10-05 11:43:00,
2013-10-05 07:48:00,59.4,56.4,30.02,NNE,22,0.0,0.0,90,0.05,CLR,,0.08,WeatherDisplay:10.37,2013-10-05 11:48:00,
2013-10-05 07:53:00,59.5,56.6,30.02,NNE,22,0.0,0.0,90,0.02,CLR,,0.08,WeatherDisplay:10.37,2013-10-05 11:53:00,
2013-10-05 07:58:00,59.7,56.8,30.02,North,0,0.0,0.0,90,0.01,CLR,,0.08,WeatherDisplay:10.37,2013-10-05 11:58:00,
2013-10-05 08:03:00,59.9,57.0,30.01,North,0,0.0,0.0,90,0.01,CLR,,0.08,WeatherDisplay:10.37,2013-10-05 12:03:00,
2013-10-05 08:08:00,60.1,57.1,30.01,North,0,0.0,0.0,90,0.00,CLR,,0.08,WeatherDisplay:10.37,2013-10-05 12:08:00,
2013-10-05 08:13:00,60.3,57.3,30.02,WNW,292,0.0,0.0,90,0.00,CLR,,0.08,WeatherDisplay:10.37,2013-10-05 12:13:00,
2013-10-05 08:18:00,60.3,57.3,30.02,WNW,292,0.0,0.0,90,0.00,CLR,,0.08,WeatherDisplay:10.37,2013-10-05 12:18:00,
2013-10-05 08:23:00,60.4,57.5,30.02,WNW,292,0.0,0.0,90,0.00,CLR,,0.08,WeatherDisplay:10.37,2013-10-05 12:23:00,
2013-10-05 08:28:00,60.4,57.5,30.02,WNW,292,0.0,0.0,90,0.00,CLR,,0.08,WeatherDisplay:10.37,2013-10-05 12:28:00,
2013-10-05 08:33:00,60.6,57.7,30.02,WNW,292,0.0,0.0,90,0.00,CLR,,0.08,WeatherDisplay:10.37,2013-10-05 12:33:00,
2013-10-05 08:38:00,60.8,57.8,30.03,NW,315,0.0,0.0,90,0.00,CLR,,0.08,WeatherDisplay:10.37,2013-10-05 12:38:00,
2013-10-05 08:43:00,60.8,57.8,30.03,NW,315,0.0,0.0,90,0.00,CLR,,0.08,WeatherDisplay:10.37,2013-10-05 12:43:00,
2013-10-05 08:48:00,60.8,57.8,30.03,NE,45,0.5,0.0,90,0.00,CLR,,0.08,WeatherDisplay:10.37,2013-10-05 12:48:00,
2013-10-05 08:53:00,60.8,57.8,30.03,NNE,22,0.0,0.0,90,0.00,CLR,,0.08,WeatherDisplay:10.37,2013-10-05 12:53:00,
2013-10-05 08:58:00,61.0,58.0,30.03,NNE,22,0.5,0.5,90,0.00,CLR,,0.08,WeatherDisplay:10.37,2013-10-05 12:58:00,
2013-10-05 09:03:00,61.0,58.0,30.03,NW,315,0.0,0.0,90,0.00,CLR,,0.08,WeatherDisplay:10.37,2013-10-05 13:03:00,
2013-10-05 09:08:00,61.0,58.0,30.03,NNE,22,0.5,0.0,90,0.00,CLR,,0.08,WeatherDisplay:10.37,2013-10-05 13:08:00,
2013-10-05 09:13:00,61.2,58.2,30.03,NNW,338,0.2,0.2,90,0.00,CLR,,0.08,WeatherDisplay:10.37,2013-10-05 13:13:00,
2013-10-05 09:18:00,61.5,58.6,30.03,NNW,338,0.2,0.0,90,0.00,CLR,,0.08,WeatherDisplay:10.37,2013-10-05 13:18:00,
2013-10-05 09:23:00,61.7,58.7,30.03,North,0,0.2,1.1,90,0.00,CLR,,0.08,WeatherDisplay:10.37,2013-10-05 13:23:00,
2013-10-05 09:28:00,61.9,58.9,30.03,ENE,68,0.0,0.0,90,0.00,CLR,,0.08,WeatherDisplay:10.37,2013-10-05 13:28:00,
2013-10-05 09:33:00,62.1,59.1,30.03,ENE,68,0.0,0.0,90,0.00,CLR,,0.08,WeatherDisplay:10.37,2013-10-05 13:33:00,
2013-10-05 09:38:00,62.1,59.1,30.03,ENE,68,0.0,0.0,90,0.00,CLR,,0.08,WeatherDisplay:10.37,2013-10-05 13:38:00,
2013-10-05 09:43:00,62.1,59.1,30.03,NE,45,0.0,0.0,90,0.00,CLR,,0.08,WeatherDisplay:10.37,2013-10-05 13:43:00,
2013-10-05 09:48:00,62.2,59.3,30.03,ENE,68,0.5,0.0,90,0.00,CLR,,0.08,WeatherDisplay:10.37,2013-10-05 13:48:00,
2013-10-05 09:53:00,62.6,59.6,30.03,East,90,0.0,0.0,90,0.00,CLR,,0.08,WeatherDisplay:10.37,2013-10-05 13:53:00,
2013-10-05 09:58:00,62.8,59.8,30.03,NNE,22,0.7,1.1,90,0.00,CLR,,0.08,WeatherDisplay:10.37,2013-10-05 13:58:00,
2013-10-05 10:03:00,63.0,60.0,30.03,East,90,0.5,1.1,90,0.00,CLR,,0.08,WeatherDisplay:10.37,2013-10-05 14:03:00,
2013-10-05 10:08:00,63.0,60.0,30.03,NNE,22,0.2,0.0,90,0.00,CLR,,0.08,WeatherDisplay:10.37,2013-10-05 14:08:00,
2013-10-05 10:13:00,63.1,60.2,30.02,NW,315,0.7,1.1,90,0.00,CLR,,0.08,WeatherDisplay:10.37,2013-10-05 14:13:00,
2013-10-05 10:18:00,63.3,60.3,30.02,ENE,68,0.0,1.1,90,0.00,CLR,,0.08,WeatherDisplay:10.37,2013-10-05 14:18:00,
2013-10-05 10:23:00,63.5,60.2,30.02,NNW,338,0.7,2.3,89,0.00,CLR,,0.08,WeatherDisplay:10.37,2013-10-05 14:23:00,
2013-10-05 10:28:00,63.7,60.4,30.02,ENE,68,1.8,2.3,89,0.00,CLR,,0.08,WeatherDisplay:10.37,2013-10-05 14:28:00,
2013-10-05 10:33:00,64.0,60.7,30.02,ENE,68,1.6,1.6,89,0.00,CLR,,0.08,WeatherDisplay:10.37,2013-10-05 14:33:00,
2013-10-05 10:38:00,64.4,61.1,30.02,East,90,1.1,1.1,89,0.00,CLR,,0.08,WeatherDisplay:10.37,2013-10-05 14:38:00,
2013-10-05 10:43:00,64.8,61.1,30.02,ENE,68,1.4,1.4,88,0.00,CLR,,0.08,WeatherDisplay:10.37,2013-10-05 14:43:00,
2013-10-05 10:48:00,65.1,61.5,30.02,NE,45,1.8,1.8,88,0.00,CLR,,0.08,WeatherDisplay:10.37,2013-10-05 14:48:00,
2013-10-05 10:53:00,65.1,61.5,30.02,NNW,338,3.3,3.5,88,0.00,CLR,,0.08,WeatherDisplay:10.37,2013-10-05 14:53:00,
2013-10-05 10:58:00,65.3,61.7,30.01,East,90,0.5,1.1,88,0.00,CLR,,0.08,WeatherDisplay:10.37,2013-10-05 14:58:00,
2013-10-05 11:03:00,65.8,61.9,30.02,North,0,1.8,2.3,87,0.00,CLR,,0.08,WeatherDisplay:10.37,2013-10-05 15:03:00,
2013-10-05 11:08:00,66.2,61.9,30.01,North,0,0.7,1.1,86,0.00,CLR,,0.08,WeatherDisplay:10.37,2013-10-05 15:08:00,
2013-10-05 11:13:00,66.2,61.9,30.01,North,0,0.2,0.2,86,0.00,CLR,,0.08,WeatherDisplay:10.37,2013-10-05 15:13:00,
2013-10-05 11:18:00,66.6,61.9,30.02,ENE,68,2.6,2.6,85,0.00,CLR,,0.08,WeatherDisplay:10.37,2013-10-05 15:18:00,
2013-10-05 11:23:00,67.1,62.1,30.02,ENE,68,3.8,3.8,84,0.00,CLR,,0.08,WeatherDisplay:10.37,2013-10-05 15:23:00,
2013-10-05 11:28:00,67.8,62.5,30.02,North,0,0.9,1.1,83,0.00,CLR,,0.08,WeatherDisplay:10.37,2013-10-05 15:28:00,
2013-10-05 11:33:00,68.0,62.6,30.02,NNE,22,0.7,1.1,83,0.00,CLR,,0.08,WeatherDisplay:10.37,2013-10-05 15:33:00,
2013-10-05 11:38:00,67.8,62.1,30.02,ENE,68,0.5,1.1,82,0.00,CLR,,0.08,WeatherDisplay:10.37,2013-10-05 15:38:00,
2013-10-05 11:43:00,67.8,62.5,30.02,NE,45,1.1,1.1,83,0.00,CLR,,0.08,WeatherDisplay:10.37,2013-10-05 15:43:00,
2013-10-05 11:48:00,68.0,62.3,30.02,NE,45,4.0,4.0,82,0.00,CLR,,0.08,WeatherDisplay:10.37,2013-10-05 15:48:00,
2013-10-05 11:53:00,68.2,62.5,30.03,ENE,68,2.6,0.0,82,0.00,CLR,,0.08,WeatherDisplay:10.37,2013-10-05 15:53:00,
2013-10-05 11:58:00,68.2,62.5,30.02,NE,45,0.2,0.2,82,0.00,CLR,,0.08,WeatherDisplay:10.37,2013-10-05 15:58:00,
2013-10-05 12:03:00,68.4,62.3,30.02,NNW,338,0.7,1.1,81,0.00,CLR,,0.08,WeatherDisplay:10.37,2013-10-05 16:03:00,
2013-10-05 12:08:00,68.4,62.3,30.02,WNW,292,0.0,0.0,81,0.00,CLR,,0.08,WeatherDisplay:10.37,2013-10-05 16:08:00,
2013-10-05 12:13:00,68.2,61.8,30.02,NE,45,2.4,2.4,80,0.00,CLR,,0.08,WeatherDisplay:10.37,2013-10-05 16:13:00,
2013-10-05 12:18:00,68.4,62.3,30.02,East,90,0.9,1.1,81,0.00,CLR,,0.08,WeatherDisplay:10.37,2013-10-05 16:18:00,
2013-10-05 12:23:00,68.5,62.5,30.02,East,90,0.0,1.1,81,0.00,CLR,,0.08,WeatherDisplay:10.37,2013-10-05 16:23:00,
2013-10-05 12:28:00,68.5,62.5,30.01,NE,45,0.0,1.1,81,0.00,CLR,,0.08,WeatherDisplay:10.37,2013-10-05 16:28:00,
2013-10-05 12:33:00,68.5,62.5,30.01,NE,45,1.6,1.6,81,0.00,CLR,,0.08,WeatherDisplay:10.37,2013-10-05 16:33:00,
2013-10-05 12:38:00,68.5,62.1,30.01,WNW,292,0.7,1.1,80,0.00,CLR,,0.08,WeatherDisplay:10.37,2013-10-05 16:38:00,
2013-10-05 12:43:00,68.7,62.3,30.01,NE,45,0.0,0.0,80,0.00,CLR,,0.08,WeatherDisplay:10.37,2013-10-05 16:43:00,
2013-10-05 12:48:00,68.7,62.7,30.01,NE,45,0.0,0.0,81,0.00,CLR,,0.08,WeatherDisplay:10.37,2013-10-05 16:48:00,
2013-10-05 12:53:00,69.1,62.6,30.01,East,90,0.5,2.3,80,0.00,CLR,,0.08,WeatherDisplay:10.37,2013-10-05 16:53:00,
2013-10-05 12:58:00,69.3,62.8,30.01,East,90,0.0,0.0,80,0.00,CLR,,0.08,WeatherDisplay:10.37,2013-10-05 16:58:00,
2013-10-05 13:03:00,69.3,62.8,30.01,SE,135,0.7,1.1,80,0.00,CLR,,0.08,WeatherDisplay:10.37,2013-10-05 17:03:00,
2013-10-05 13:08:00,69.4,63.0,30.01,NE,45,0.5,0.0,80,0.00,CLR,,0.08,WeatherDisplay:10.37,2013-10-05 17:08:00,
2013-10-05 13:13:00,69.3,62.5,30.01,South,180,1.1,1.1,79,0.00,CLR,,0.08,WeatherDisplay:10.37,2013-10-05 17:13:00,
2013-10-05 13:18:00,69.1,62.6,30.01,NE,45,1.1,1.1,80,0.00,CLR,,0.08,WeatherDisplay:10.37,2013-10-05 17:18:00,
2013-10-05 13:23:00,69.1,62.6,30.00,ENE,68,0.5,1.1,80,0.00,CLR,,0.08,WeatherDisplay:10.37,2013-10-05 17:23:00,
2013-10-05 13:28:00,69.1,62.3,30.00,NE,45,0.5,0.5,79,0.00,CLR,,0.08,WeatherDisplay:10.37,2013-10-05 17:28:00,
2013-10-05 13:33:00,68.9,62.1,30.00,ENE,68,1.1,1.1,79,0.00,CLR,,0.08,WeatherDisplay:10.37,2013-10-05 17:33:00,
2013-10-05 13:38:00,68.7,61.9,30.00,ESE,112,0.5,1.1,79,0.00,CLR,,0.08,WeatherDisplay:10.37,2013-10-05 17:38:00,
2013-10-05 13:43:00,68.9,62.5,30.00,NNE,22,1.8,2.3,80,0.00,CLR,,0.08,WeatherDisplay:10.37,2013-10-05 17:43:00,
2013-10-05 13:48:00,69.1,62.6,30.00,NE,45,0.0,1.1,80,0.00,CLR,,0.08,WeatherDisplay:10.37,2013-10-05 17:48:00,
2013-10-05 13:53:00,69.1,62.6,30.00,NW,315,0.2,0.2,80,0.00,CLR,,0.08,WeatherDisplay:10.37,2013-10-05 17:53:00,
2013-10-05 13:58:00,69.4,63.0,30.00,NNE,22,0.0,0.0,80,0.00,CLR,,0.08,WeatherDisplay:10.37,2013-10-05 17:58:00,
2013-10-05 14:03:00,69.6,62.5,30.00,NNE,22,2.4,2.4,78,0.00,CLR,,0.08,WeatherDisplay:10.37,2013-10-05 18:03:00,
2013-10-05 14:08:00,69.6,62.5,30.00,ENE,68,0.0,1.1,78,0.00,CLR,,0.08,WeatherDisplay:10.37,2013-10-05 18:08:00,
2013-10-05 14:13:00,69.3,62.1,30.00,NNW,338,0.0,1.1,78,0.00,CLR,,0.08,WeatherDisplay:10.37,2013-10-05 18:13:00,
2013-10-05 14:18:00,69.1,61.9,29.99,ENE,68,2.4,2.4,78,0.00,CLR,,0.08,WeatherDisplay:10.37,2013-10-05 18:18:00,
2013-10-05 14:23:00,69.1,62.3,29.99,North,0,0.2,0.2,79,0.00,CLR,,0.08,WeatherDisplay:10.37,2013-10-05 18:23:00,
2013-10-05 14:28:00,69.1,61.9,30.00,North,0,0.7,2.3,78,0.00,CLR,,0.08,WeatherDisplay:10.37,2013-10-05 18:28:00,
2013-10-05 14:33:00,68.7,61.9,30.00,ENE,68,2.2,2.2,79,0.00,CLR,,0.08,WeatherDisplay:10.37,2013-10-05 18:33:00,
2013-10-05 14:38:00,68.4,61.6,30.00,NNW,338,1.4,2.3,79,0.00,CLR,,0.08,WeatherDisplay:10.37,2013-10-05 18:38:00,
2013-10-05 14:43:00,68.2,61.4,30.00,NNE,22,1.8,2.3,79,0.00,CLR,,0.08,WeatherDisplay:10.37,2013-10-05 18:43:00,
2013-10-05 14:48:00,67.8,61.4,30.00,NE,45,1.1,1.1,80,0.00,CLR,,0.08,WeatherDisplay:10.37,2013-10-05 18:48:00,
2013-10-05 14:53:00,67.6,60.9,30.00,East,90,2.0,2.3,79,0.00,CLR,,0.08,WeatherDisplay:10.37,2013-10-05 18:53:00,
2013-10-05 14:58:00,67.3,60.9,30.00,West,270,1.8,1.8,80,0.00,CLR,,0.08,WeatherDisplay:10.37,2013-10-05 18:58:00,
2013-10-05 15:03:00,67.3,60.9,30.00,West,270,0.9,1.1,80,0.00,CLR,,0.08,WeatherDisplay:10.37,2013-10-05 19:03:00,
2013-10-05 15:08:00,67.1,60.7,30.00,NW,315,0.5,1.1,80,0.00,CLR,,0.08,WeatherDisplay:10.37,2013-10-05 19:08:00,
2013-10-05 15:13:00,67.1,60.7,30.00,WNW,292,2.4,2.4,80,0.00,CLR,,0.08,WeatherDisplay:10.37,2013-10-05 19:13:00,
2013-10-05 15:18:00,67.1,60.7,30.00,WSW,248,1.8,2.3,80,0.00,CLR,,0.08,WeatherDisplay:10.37,2013-10-05 19:18:00,
2013-10-05 15:23:00,66.9,60.5,30.01,North,0,2.2,2.3,80,0.00,CLR,,0.08,WeatherDisplay:10.37,2013-10-05 19:23:00,
2013-10-05 15:28:00,67.1,60.7,30.00,ESE,112,1.1,2.3,80,0.00,CLR,,0.08,WeatherDisplay:10.37,2013-10-05 19:28:00,
2013-10-05 15:33:00,67.3,60.9,30.00,NNE,22,1.6,2.3,80,0.00,CLR,,0.08,WeatherDisplay:10.37,2013-10-05 19:33:00,
2013-10-05 15:38:00,67.1,60.7,30.00,West,270,0.2,1.1,80,0.00,CLR,,0.08,WeatherDisplay:10.37,2013-10-05 19:38:00,
2013-10-05 15:43:00,67.3,60.9,30.00,ENE,68,0.5,0.0,80,0.00,CLR,,0.08,WeatherDisplay:10.37,2013-10-05 19:43:00,
2013-10-05 15:48:00,67.3,60.9,30.00,ENE,68,3.3,3.5,80,0.00,CLR,,0.08,WeatherDisplay:10.37,2013-10-05 19:48:00,
2013-10-05 15:53:00,67.3,60.9,30.00,NW,315,0.9,2.3,80,0.00,CLR,,0.08,WeatherDisplay:10.37,2013-10-05 19:53:00,
2013-10-05 15:58:00,67.5,61.1,30.00,NNE,22,0.5,0.5,80,0.00,CLR,,0.08,WeatherDisplay:10.37,2013-10-05 19:58:00,
2013-10-05 16:03:00,67.3,60.9,30.01,NW,315,1.4,1.4,80,0.00,CLR,,0.08,WeatherDisplay:10.37,2013-10-05 20:03:00,
2013-10-05 16:08:00,67.3,60.9,30.00,ENE,68,1.8,2.3,80,0.00,CLR,,0.08,WeatherDisplay:10.37,2013-10-05 20:08:00,
2013-10-05 16:13:00,67.3,60.9,30.00,NNE,22,2.4,2.4,80,0.00,CLR,,0.08,WeatherDisplay:10.37,2013-10-05 20:13:00,
2013-10-05 16:18:00,67.3,60.9,30.01,North,0,2.4,2.4,80,0.00,CLR,,0.08,WeatherDisplay:10.37,2013-10-05 20:18:00,
2013-10-05 16:23:00,66.9,60.5,30.01,NW,315,0.2,2.3,80,0.00,CLR,,0.08,WeatherDisplay:10.37,2013-10-05 20:23:00,
2013-10-05 16:28:00,66.9,60.5,30.01,NNE,22,1.1,1.1,80,0.00,CLR,,0.08,WeatherDisplay:10.37,2013-10-05 20:28:00,
2013-10-05 16:33:00,66.7,60.4,30.00,NNE,22,1.1,1.1,80,0.00,CLR,,0.08,WeatherDisplay:10.37,2013-10-05 20:33:00,
2013-10-05 16:38:00,66.6,60.2,30.00,NNE,22,0.5,0.5,80,0.00,CLR,,0.08,WeatherDisplay:10.37,2013-10-05 20:38:00,
2013-10-05 16:43:00,66.6,60.2,30.00,NE,45,1.6,1.6,80,0.00,CLR,,0.08,WeatherDisplay:10.37,2013-10-05 20:43:00,
2013-10-05 16:48:00,66.4,60.4,30.00,NNE,22,0.5,0.5,81,0.00,CLR,,0.08,WeatherDisplay:10.37,2013-10-05 20:48:00,
2013-10-05 16:53:00,66.4,60.4,30.00,ENE,68,0.7,1.1,81,0.00,CLR,,0.08,WeatherDisplay:10.37,2013-10-05 20:53:00,
2013-10-05 16:58:00,66.4,60.4,30.00,NNE,22,0.5,1.1,81,0.00,CLR,,0.08,WeatherDisplay:10.37,2013-10-05 20:58:00,
2013-10-05 17:03:00,66.4,60.4,30.00,NNW,338,0.0,0.0,81,0.00,CLR,,0.08,WeatherDisplay:10.37,2013-10-05 21:03:00,
2013-10-05 17:08:00,66.2,60.2,30.00,ENE,68,0.0,0.0,81,0.00,CLR,,0.08,WeatherDisplay:10.37,2013-10-05 21:08:00,
2013-10-05 17:13:00,66.0,60.0,30.00,East,90,0.5,0.5,81,0.00,CLR,,0.08,WeatherDisplay:10.37,2013-10-05 21:13:00,
2013-10-05 17:18:00,66.0,60.4,30.00,ENE,68,0.5,1.1,82,0.00,CLR,,0.08,WeatherDisplay:10.37,2013-10-05 21:18:00,
2013-10-05 17:23:00,65.8,60.2,30.00,East,90,0.9,1.1,82,0.00,CLR,,0.08,WeatherDisplay:10.37,2013-10-05 21:23:00,
2013-10-05 17:28:00,65.8,60.2,30.01,ENE,68,0.0,0.0,82,0.00,CLR,,0.08,WeatherDisplay:10.37,2013-10-05 21:28:00,
2013-10-05 17:33:00,65.7,60.0,30.01,East,90,0.7,1.1,82,0.00,CLR,,0.08,WeatherDisplay:10.37,2013-10-05 21:33:00,
2013-10-05 17:38:00,65.3,59.7,30.01,NE,45,0.5,0.5,82,0.00,CLR,,0.08,WeatherDisplay:10.37,2013-10-05 21:38:00,
2013-10-05 17:43:00,65.1,59.5,30.01,NE,45,0.5,0.5,82,0.00,CLR,,0.08,WeatherDisplay:10.37,2013-10-05 21:43:00,
2013-10-05 17:48:00,65.1,59.8,30.01,NE,45,0.2,0.2,83,0.00,CLR,,0.08,WeatherDisplay:10.37,2013-10-05 21:48:00,
2013-10-05 17:53:00,64.8,59.5,30.01,NE,45,0.0,0.0,83,0.00,CLR,,0.08,WeatherDisplay:10.37,2013-10-05 21:53:00,
2013-10-05 17:58:00,64.8,59.5,30.01,ENE,68,0.5,0.5,83,0.00,CLR,,0.08,WeatherDisplay:10.37,2013-10-05 21:58:00,
2013-10-05 18:03:00,64.8,59.8,30.01,NE,45,0.7,1.1,84,0.00,CLR,,0.08,WeatherDisplay:10.37,2013-10-05 22:03:00,
2013-10-05 18:08:00,64.6,59.3,30.01,NE,45,0.5,0.5,83,0.00,CLR,,0.08,WeatherDisplay:10.37,2013-10-05 22:08:00,
2013-10-05 18:13:00,64.6,59.3,30.01,NE,45,0.0,0.0,83,0.00,CLR,,0.08,WeatherDisplay:10.37,2013-10-05 22:13:00,
2013-10-05 18:18:00,64.4,59.1,30.02,NE,45,0.2,0.2,83,0.00,CLR,,0.08,WeatherDisplay:10.37,2013-10-05 22:18:00,
2013-10-05 18:23:00,64.2,58.9,30.02,NE,45,0.0,0.0,83,0.00,CLR,,0.08,WeatherDisplay:10.37,2013-10-05 22:23:00,
2013-10-05 18:28:00,64.0,58.8,30.02,NE,45,0.0,0.0,83,0.00,CLR,,0.08,WeatherDisplay:10.37,2013-10-05 22:28:00,
2013-10-05 18:33:00,64.0,58.8,30.02,NW,315,0.5,0.5,83,0.00,CLR,,0.08,WeatherDisplay:10.37,2013-10-05 22:33:00,
2013-10-05 18:38:00,63.9,58.6,30.02,NNW,338,0.0,0.0,83,0.00,CLR,,0.08,WeatherDisplay:10.37,2013-10-05 22:38:00,
2013-10-05 18:43:00,63.7,58.4,30.02,NNE,22,0.7,1.1,83,0.00,CLR,,0.08,WeatherDisplay:10.37,2013-10-05 22:43:00,
2013-10-05 18:48:00,63.3,58.1,30.02,NNE,22,0.0,0.0,83,0.00,CLR,,0.08,WeatherDisplay:10.37,2013-10-05 22:48:00,
2013-10-05 18:53:00,63.1,57.9,30.02,NW,315,0.0,0.0,83,0.00,CLR,,0.08,WeatherDisplay:10.37,2013-10-05 22:53:00,
2013-10-05 18:58:00,63.0,57.7,30.03,NNE,22,0.7,1.1,83,0.00,CLR,,0.08,WeatherDisplay:10.37,2013-10-05 22:58:00,
2013-10-05 19:03:00,62.8,57.9,30.02,NNE,22,0.0,0.0,84,0.00,CLR,,0.08,WeatherDisplay:10.37,2013-10-05 23:03:00,
2013-10-05 19:08:00,62.6,57.7,30.02,NNW,338,0.0,0.0,84,0.00,CLR,,0.08,WeatherDisplay:10.37,2013-10-05 23:08:00,
2013-10-05 19:13:00,62.2,57.3,30.03,NW,315,0.0,0.0,84,0.00,CLR,,0.08,WeatherDisplay:10.37,2013-10-05 23:13:00,
2013-10-05 19:18:00,62.1,57.2,30.03,NW,315,0.0,0.0,84,0.00,CLR,,0.08,WeatherDisplay:10.37,2013-10-05 23:18:00,
2013-10-05 19:23:00,61.9,57.0,30.03,NW,315,0.0,0.0,84,0.00,CLR,,0.08,WeatherDisplay:10.37,2013-10-05 23:23:00,
2013-10-05 19:28:00,61.7,57.1,30.03,NW,315,0.0,0.0,85,0.00,CLR,,0.08,WeatherDisplay:10.37,2013-10-05 23:28:00,
2013-10-05 19:33:00,61.5,57.0,30.03,NW,315,0.0,0.0,85,0.00,CLR,,0.08,WeatherDisplay:10.37,2013-10-05 23:33:00,
2013-10-05 19:38:00,61.2,56.6,30.03,NNW,338,0.0,0.0,85,0.00,CLR,,0.08,WeatherDisplay:10.37,2013-10-05 23:38:00,
2013-10-05 19:43:00,61.2,56.6,30.03,NNW,338,0.0,0.0,85,0.00,CLR,,0.08,WeatherDisplay:10.37,2013-10-05 23:43:00,
2013-10-05 19:48:00,60.8,56.3,30.03,NNW,338,0.0,0.0,85,0.00,CLR,,0.08,WeatherDisplay:10.37,2013-10-05 23:48:00,
2013-10-05 19:53:00,60.8,56.3,30.03,NNW,338,0.0,0.0,85,0.00,CLR,,0.08,WeatherDisplay:10.37,2013-10-05 23:53:00,
2013-10-05 19:58:00,60.6,56.1,30.03,NNW,338,0.0,0.0,85,0.00,CLR,,0.08,WeatherDisplay:10.37,2013-10-05 23:58:00,
2013-10-05 20:03:00,60.4,55.9,30.03,NNW,338,0.0,0.0,85,0.00,CLR,,0.08,WeatherDisplay:10.37,2013-10-06 00:03:00,
2013-10-05 20:08:00,60.3,56.1,30.03,NNW,338,0.0,0.0,86,0.00,CLR,,0.08,WeatherDisplay:10.37,2013-10-06 00:08:00,
2013-10-05 20:13:00,60.1,55.9,30.03,North,0,0.0,0.0,86,0.00,CLR,,0.08,WeatherDisplay:10.37,2013-10-06 00:13:00,
2013-10-05 20:18:00,60.1,55.9,30.03,North,0,0.0,0.0,86,0.00,CLR,,0.08,WeatherDisplay:10.37,2013-10-06 00:18:00,
2013-10-05 20:23:00,59.7,55.5,30.03,North,0,0.0,0.0,86,0.00,CLR,,0.08,WeatherDisplay:10.37,2013-10-06 00:23:00,
2013-10-05 20:28:00,59.7,55.5,30.03,North,0,0.0,0.0,86,0.00,CLR,,0.08,WeatherDisplay:10.37,2013-10-06 00:28:00,
2013-10-05 20:33:00,59.5,55.7,30.03,North,0,0.0,0.0,87,0.00,CLR,,0.08,WeatherDisplay:10.37,2013-10-06 00:33:00,
2013-10-05 20:38:00,59.4,55.5,30.03,North,0,0.0,0.0,87,0.00,CLR,,0.08,WeatherDisplay:10.37,2013-10-06 00:38:00,
2013-10-05 20:43:00,59.4,55.5,30.03,North,0,0.0,0.0,87,0.00,CLR,,0.08,WeatherDisplay:10.37,2013-10-06 00:43:00,
2013-10-05 20:48:00,59.4,55.5,30.03,North,0,0.0,0.0,87,0.00,CLR,,0.08,WeatherDisplay:10.37,2013-10-06 00:48:00,
2013-10-05 20:53:00,59.0,55.1,30.03,North,0,0.0,0.0,87,0.00,CLR,,0.08,WeatherDisplay:10.37,2013-10-06 00:53:00,
2013-10-05 20:58:00,59.0,55.1,30.04,North,0,0.0,0.0,87,0.00,CLR,,0.08,WeatherDisplay:10.37,2013-10-06 00:58:00,
2013-10-05 21:03:00,58.8,55.0,30.03,North,0,0.0,0.0,87,0.00,CLR,,0.08,WeatherDisplay:10.37,2013-10-06 01:03:00,
2013-10-05 21:08:00,58.6,54.8,30.04,NE,45,0.2,0.2,87,0.00,CLR,,0.08,WeatherDisplay:10.37,2013-10-06 01:08:00,
2013-10-05 21:13:00,58.6,54.8,30.04,NE,45,0.0,0.0,87,0.00,CLR,,0.08,WeatherDisplay:10.37,2013-10-06 01:13:00,
2013-10-05 21:18:00,58.6,54.8,30.04,NE,45,0.5,0.5,87,0.00,CLR,,0.08,WeatherDisplay:10.37,2013-10-06 01:18:00,
2013-10-05 21:23:00,58.6,54.8,30.04,NE,45,0.0,0.0,87,0.00,CLR,,0.08,WeatherDisplay:10.37,2013-10-06 01:23:00,
2013-10-05 21:28:00,58.6,55.1,30.04,NE,45,0.0,0.0,88,0.00,CLR,,0.08,WeatherDisplay:10.37,2013-10-06 01:28:00,
2013-10-05 21:33:00,58.6,55.1,30.05,NE,45,0.0,0.0,88,0.00,CLR,,0.08,WeatherDisplay:10.37,2013-10-06 01:33:00,
2013-10-05 21:38:00,58.6,55.1,30.04,NE,45,0.0,0.0,88,0.00,CLR,,0.08,WeatherDisplay:10.37,2013-10-06 01:38:00,
2013-10-05 21:43:00,58.6,55.1,30.04,NE,45,0.0,0.0,88,0.00,CLR,,0.08,WeatherDisplay:10.37,2013-10-06 01:43:00,
2013-10-05 21:48:00,58.6,55.1,30.04,NE,45,0.0,0.0,88,0.00,CLR,,0.08,WeatherDisplay:10.37,2013-10-06 01:48:00,
2013-10-05 21:53:00,58.6,55.1,30.05,NE,45,0.0,0.0,88,0.00,CLR,,0.08,WeatherDisplay:10.37,2013-10-06 01:53:00,
2013-10-05 21:58:00,58.6,55.1,30.05,NE,45,0.0,0.0,88,0.00,CLR,,0.08,WeatherDisplay:10.37,2013-10-06 01:58:00,
2013-10-05 22:03:00,58.6,55.1,30.05,NE,45,0.0,0.0,88,0.00,CLR,,0.08,WeatherDisplay:10.37,2013-10-06 02:03:00,
2013-10-05 22:08:00,58.5,55.2,30.06,NE,45,0.0,0.0,89,0.00,CLR,,0.08,WeatherDisplay:10.37,2013-10-06 02:08:00,
2013-10-05 22:13:00,58.3,55.1,30.06,NE,45,0.0,0.0,89,0.00,CLR,,0.08,WeatherDisplay:10.37,2013-10-06 02:13:00,
2013-10-05 22:18:00,58.3,55.1,30.06,NE,45,0.0,0.0,89,0.00,CLR,,0.08,WeatherDisplay:10.37,2013-10-06 02:18:00,
2013-10-05 22:23:00,58.3,55.1,30.06,NE,45,0.0,0.0,89,0.00,CLR,,0.08,WeatherDisplay:10.37,2013-10-06 02:23:00,
2013-10-05 22:28:00,58.3,55.1,30.05,East,90,0.0,0.0,89,0.00,CLR,,0.08,WeatherDisplay:10.37,2013-10-06 02:28:00,
2013-10-05 22:33:00,58.3,55.1,30.05,East,90,0.0,0.0,89,0.00,CLR,,0.08,WeatherDisplay:10.37,2013-10-06 02:33:00,
2013-10-05 22:38:00,58.1,54.6,30.05,East,90,0.0,0.0,88,0.00,CLR,,0.08,WeatherDisplay:10.37,2013-10-06 02:38:00,
2013-10-05 22:43:00,58.1,54.6,30.05,East,90,0.0,0.0,88,0.00,CLR,,0.08,WeatherDisplay:10.37,2013-10-06 02:43:00,
2013-10-05 22:48:00,57.9,54.4,30.05,East,90,0.0,0.0,88,0.00,CLR,,0.08,WeatherDisplay:10.37,2013-10-06 02:48:00,
2013-10-05 22:53:00,57.9,54.4,30.05,East,90,0.0,0.0,88,0.00,CLR,,0.08,WeatherDisplay:10.37,2013-10-06 02:53:00,
2013-10-05 22:58:00,57.9,54.4,30.05,East,90,0.0,0.0,88,0.00,CLR,,0.08,WeatherDisplay:10.37,2013-10-06 02:58:00,
2013-10-05 23:03:00,57.9,54.4,30.05,East,90,0.0,0.0,88,0.00,CLR,,0.08,WeatherDisplay:10.37,2013-10-06 03:03:00,
2013-10-05 23:08:00,57.9,54.4,30.05,East,90,0.0,0.0,88,0.00,CLR,,0.08,WeatherDisplay:10.37,2013-10-06 03:08:00,
2013-10-05 23:13:00,57.9,54.4,30.05,East,90,0.0,0.0,88,0.00,CLR,,0.08,WeatherDisplay:10.37,2013-10-06 03:13:00,
2013-10-05 23:18:00,57.7,54.2,30.04,East,90,0.0,0.0,88,0.00,CLR,,0.08,WeatherDisplay:10.37,2013-10-06 03:18:00,
2013-10-05 23:23:00,57.6,54.0,30.04,East,90,0.0,0.0,88,0.00,CLR,,0.08,WeatherDisplay:10.37,2013-10-06 03:23:00,
2013-10-05 23:28:00,57.6,54.0,30.04,East,90,0.0,0.0,88,0.00,CLR,,0.08,WeatherDisplay:10.37,2013-10-06 03:28:00,
2013-10-05 23:33:00,57.4,53.9,30.04,East,90,0.0,0.0,88,0.00,CLR,,0.08,WeatherDisplay:10.37,2013-10-06 03:33:00,
2013-10-05 23:38:00,57.4,53.9,30.05,East,90,0.0,0.0,88,0.00,CLR,,0.08,WeatherDisplay:10.37,2013-10-06 03:38:00,
2013-10-05 23:43:00,57.2,53.7,30.05,East,90,0.0,0.0,88,0.00,CLR,,0.08,WeatherDisplay:10.37,2013-10-06 03:43:00,
2013-10-05 23:48:00,57.2,53.7,30.05,East,90,0.0,0.0,88,0.00,CLR,,0.08,WeatherDisplay:10.37,2013-10-06 03:48:00,
2013-10-05 23:53:00,57.2,53.7,30.05,East,90,0.0,0.0,88,0.00,CLR,,0.08,WeatherDisplay:10.37,2013-10-06 03:53:00,
2013-10-05 23:58:00,56.8,53.3,30.05,East,90,0.0,0.0,88,0.00,CLR,,0.08,WeatherDisplay:10.37,2013-10-06 03:58:00,